sensor_id;sensor_type;location;lat;lon;timestamp;P1;durP1;ratioP1;P2;durP2;ratioP2
65667;SDS011;52369;52.542;13.232;2023-03-14T00:00:35;2.72;;;1.30;;
65667;SDS011;52369;52.542;13.232;2023-03-14T00:03:01;1.58;;;1.10;;
65667;SDS011;52369;52.542;13.232;2023-03-14T00:05:27;2.75;;;1.00;;
65667;SDS011;52369;52.542;13.232;2023-03-14T00:07:53;3.70;;;1.63;;
65667;SDS011;52369;52.542;13.232;2023-03-14T00:10:19;2.88;;;1.60;;
65667;SDS011;52369;52.542;13.232;2023-03-14T00:12:45;3.53;;;1.70;;
65667;SDS011;52369;52.542;13.232;2023-03-14T00:15:12;1.55;;;1.20;;
65667;SDS011;52369;52.542;13.232;2023-03-14T00:17:38;2.90;;;1.40;;
65667;SDS011;52369;52.542;13.232;2023-03-14T00:20:05;3.45;;;1.67;;
65667;SDS011;52369;52.542;13.232;2023-03-14T00:22:36;1.60;;;1.40;;
65667;SDS011;52369;52.542;13.232;2023-03-14T00:25:03;2.97;;;1.20;;
65667;SDS011;52369;52.542;13.232;2023-03-14T00:27:30;3.53;;;1.65;;
65667;SDS011;52369;52.542;13.232;2023-03-14T00:29:56;1.65;;;1.10;;
65667;SDS011;52369;52.542;13.232;2023-03-14T00:32:22;1.60;;;1.20;;
65667;SDS011;52369;52.542;13.232;2023-03-14T00:34:48;3.40;;;1.42;;
65667;SDS011;52369;52.542;13.232;2023-03-14T00:37:14;1.58;;;0.95;;
65667;SDS011;52369;52.542;13.232;2023-03-14T00:39:40;3.28;;;1.70;;
65667;SDS011;52369;52.542;13.232;2023-03-14T00:42:06;2.80;;;1.90;;
65667;SDS011;52369;52.542;13.232;2023-03-14T00:44:33;2.70;;;1.33;;
65667;SDS011;52369;52.542;13.232;2023-03-14T00:46:59;2.55;;;1.48;;
65667;SDS011;52369;52.542;13.232;2023-03-14T00:49:25;2.38;;;1.48;;
65667;SDS011;52369;52.542;13.232;2023-03-14T00:51:51;3.28;;;1.60;;
65667;SDS011;52369;52.542;13.232;2023-03-14T00:54:17;2.67;;;1.20;;
65667;SDS011;52369;52.542;13.232;2023-03-14T00:56:44;2.80;;;1.15;;
65667;SDS011;52369;52.542;13.232;2023-03-14T00:59:10;1.75;;;1.20;;
65667;SDS011;52369;52.542;13.232;2023-03-14T01:01:36;2.05;;;1.20;;
65667;SDS011;52369;52.542;13.232;2023-03-14T01:04:02;1.92;;;1.35;;
65667;SDS011;52369;52.542;13.232;2023-03-14T01:06:28;1.95;;;1.05;;
65667;SDS011;52369;52.542;13.232;2023-03-14T01:08:55;3.38;;;1.27;;
65667;SDS011;52369;52.542;13.232;2023-03-14T01:11:23;2.15;;;1.20;;
65667;SDS011;52369;52.542;13.232;2023-03-14T01:13:50;2.25;;;1.20;;
65667;SDS011;52369;52.542;13.232;2023-03-14T01:16:16;3.30;;;1.27;;
65667;SDS011;52369;52.542;13.232;2023-03-14T01:18:43;1.00;;;0.90;;
65667;SDS011;52369;52.542;13.232;2023-03-14T01:21:11;2.40;;;1.17;;
65667;SDS011;52369;52.542;13.232;2023-03-14T01:23:38;2.45;;;1.10;;
65667;SDS011;52369;52.542;13.232;2023-03-14T01:26:04;1.38;;;0.95;;
65667;SDS011;52369;52.542;13.232;2023-03-14T01:28:30;2.03;;;1.10;;
65667;SDS011;52369;52.542;13.232;2023-03-14T01:30:56;2.40;;;1.35;;
65667;SDS011;52369;52.542;13.232;2023-03-14T01:33:27;2.17;;;1.30;;
65667;SDS011;52369;52.542;13.232;2023-03-14T01:35:53;2.53;;;1.15;;
65667;SDS011;52369;52.542;13.232;2023-03-14T01:38:19;2.25;;;1.05;;
65667;SDS011;52369;52.542;13.232;2023-03-14T01:40:45;1.38;;;1.20;;
65667;SDS011;52369;52.542;13.232;2023-03-14T01:43:18;3.20;;;1.10;;
65667;SDS011;52369;52.542;13.232;2023-03-14T01:51:01;1.58;;;1.08;;
65667;SDS011;52369;52.542;13.232;2023-03-14T01:53:28;2.30;;;1.00;;
65667;SDS011;52369;52.542;13.232;2023-03-14T01:55:54;2.00;;;0.82;;
65667;SDS011;52369;52.542;13.232;2023-03-14T01:58:24;1.77;;;1.00;;
65667;SDS011;52369;52.542;13.232;2023-03-14T02:00:52;1.45;;;0.88;;
65667;SDS011;52369;52.542;13.232;2023-03-14T02:03:18;2.60;;;0.70;;
65667;SDS011;52369;52.542;13.232;2023-03-14T02:05:46;2.33;;;0.88;;
65667;SDS011;52369;52.542;13.232;2023-03-14T02:08:19;1.23;;;1.00;;
65667;SDS011;52369;52.542;13.232;2023-03-14T02:10:49;2.65;;;1.30;;
65667;SDS011;52369;52.542;13.232;2023-03-14T02:13:16;2.20;;;1.15;;
65667;SDS011;52369;52.542;13.232;2023-03-14T02:15:42;1.95;;;1.10;;
65667;SDS011;52369;52.542;13.232;2023-03-14T02:18:09;2.40;;;0.95;;
65667;SDS011;52369;52.542;13.232;2023-03-14T02:23:05;1.98;;;0.88;;
65667;SDS011;52369;52.542;13.232;2023-03-14T02:27:57;2.58;;;1.05;;
65667;SDS011;52369;52.542;13.232;2023-03-14T02:30:24;1.50;;;1.00;;
65667;SDS011;52369;52.542;13.232;2023-03-14T02:33:09;1.23;;;0.80;;
65667;SDS011;52369;52.542;13.232;2023-03-14T02:35:42;1.88;;;1.20;;
65667;SDS011;52369;52.542;13.232;2023-03-14T02:40:35;3.15;;;1.27;;
65667;SDS011;52369;52.542;13.232;2023-03-14T02:43:01;1.27;;;0.90;;
65667;SDS011;52369;52.542;13.232;2023-03-14T02:45:35;2.67;;;1.20;;
65667;SDS011;52369;52.542;13.232;2023-03-14T02:48:02;2.25;;;1.13;;
65667;SDS011;52369;52.542;13.232;2023-03-14T02:50:30;2.33;;;1.08;;
65667;SDS011;52369;52.542;13.232;2023-03-14T02:52:59;1.17;;;1.00;;
65667;SDS011;52369;52.542;13.232;2023-03-14T02:55:25;1.58;;;0.88;;
65667;SDS011;52369;52.542;13.232;2023-03-14T02:57:51;2.13;;;1.00;;
65667;SDS011;52369;52.542;13.232;2023-03-14T03:00:18;2.28;;;0.85;;
65667;SDS011;52369;52.542;13.232;2023-03-14T03:02:44;0.93;;;0.63;;
65667;SDS011;52369;52.542;13.232;2023-03-14T03:05:10;0.93;;;0.82;;
65667;SDS011;52369;52.542;13.232;2023-03-14T03:07:36;1.25;;;0.80;;
65667;SDS011;52369;52.542;13.232;2023-03-14T03:10:02;3.20;;;1.10;;
65667;SDS011;52369;52.542;13.232;2023-03-14T03:12:29;2.00;;;1.05;;
65667;SDS011;52369;52.542;13.232;2023-03-14T03:14:55;1.55;;;0.90;;
65667;SDS011;52369;52.542;13.232;2023-03-14T03:17:21;2.83;;;1.10;;
65667;SDS011;52369;52.542;13.232;2023-03-14T03:19:47;0.90;;;0.80;;
65667;SDS011;52369;52.542;13.232;2023-03-14T03:22:13;1.95;;;0.98;;
65667;SDS011;52369;52.542;13.232;2023-03-14T03:24:39;0.90;;;0.90;;
65667;SDS011;52369;52.542;13.232;2023-03-14T03:27:05;1.88;;;1.00;;
65667;SDS011;52369;52.542;13.232;2023-03-14T03:29:31;1.05;;;0.80;;
65667;SDS011;52369;52.542;13.232;2023-03-14T03:31:57;1.52;;;1.08;;
65667;SDS011;52369;52.542;13.232;2023-03-14T03:34:23;2.70;;;1.00;;
65667;SDS011;52369;52.542;13.232;2023-03-14T03:36:49;1.20;;;0.70;;
65667;SDS011;52369;52.542;13.232;2023-03-14T03:39:15;2.53;;;1.00;;
65667;SDS011;52369;52.542;13.232;2023-03-14T03:41:41;2.15;;;0.95;;
65667;SDS011;52369;52.542;13.232;2023-03-14T03:44:07;1.08;;;0.82;;
65667;SDS011;52369;52.542;13.232;2023-03-14T03:46:33;3.33;;;1.02;;
65667;SDS011;52369;52.542;13.232;2023-03-14T03:48:59;0.88;;;0.73;;
65667;SDS011;52369;52.542;13.232;2023-03-14T03:51:25;2.22;;;1.10;;
65667;SDS011;52369;52.542;13.232;2023-03-14T03:53:52;2.47;;;1.08;;
65667;SDS011;52369;52.542;13.232;2023-03-14T03:56:18;1.02;;;0.70;;
65667;SDS011;52369;52.542;13.232;2023-03-14T03:58:44;3.30;;;1.23;;
65667;SDS011;52369;52.542;13.232;2023-03-14T04:01:10;2.45;;;1.00;;
65667;SDS011;52369;52.542;13.232;2023-03-14T04:03:36;1.15;;;0.70;;
65667;SDS011;52369;52.542;13.232;2023-03-14T04:06:06;1.98;;;1.00;;
65667;SDS011;52369;52.542;13.232;2023-03-14T04:08:32;1.33;;;0.88;;
65667;SDS011;52369;52.542;13.232;2023-03-14T04:10:59;1.20;;;0.68;;
65667;SDS011;52369;52.542;13.232;2023-03-14T04:13:26;1.52;;;0.80;;
65667;SDS011;52369;52.542;13.232;2023-03-14T04:15:52;1.20;;;0.93;;
65667;SDS011;52369;52.542;13.232;2023-03-14T04:18:19;1.77;;;0.90;;
65667;SDS011;52369;52.542;13.232;2023-03-14T04:20:45;3.38;;;0.82;;
65667;SDS011;52369;52.542;13.232;2023-03-14T04:23:11;2.50;;;1.15;;
65667;SDS011;52369;52.542;13.232;2023-03-14T04:25:37;3.03;;;1.15;;
65667;SDS011;52369;52.542;13.232;2023-03-14T04:28:03;4.22;;;1.13;;
65667;SDS011;52369;52.542;13.232;2023-03-14T04:30:30;1.67;;;0.80;;
65667;SDS011;52369;52.542;13.232;2023-03-14T04:32:55;1.98;;;0.80;;
65667;SDS011;52369;52.542;13.232;2023-03-14T04:35:21;1.30;;;0.98;;
65667;SDS011;52369;52.542;13.232;2023-03-14T04:37:48;2.53;;;1.35;;
65667;SDS011;52369;52.542;13.232;2023-03-14T04:40:14;2.47;;;1.00;;
65667;SDS011;52369;52.542;13.232;2023-03-14T04:42:40;1.83;;;0.93;;
65667;SDS011;52369;52.542;13.232;2023-03-14T04:45:07;3.33;;;1.20;;
65667;SDS011;52369;52.542;13.232;2023-03-14T04:47:33;1.10;;;0.90;;
65667;SDS011;52369;52.542;13.232;2023-03-14T04:49:59;1.17;;;0.90;;
65667;SDS011;52369;52.542;13.232;2023-03-14T04:52:26;2.00;;;0.95;;
65667;SDS011;52369;52.542;13.232;2023-03-14T04:54:52;2.28;;;0.85;;
65667;SDS011;52369;52.542;13.232;2023-03-14T04:57:18;1.23;;;0.90;;
65667;SDS011;52369;52.542;13.232;2023-03-14T04:59:44;2.10;;;0.95;;
65667;SDS011;52369;52.542;13.232;2023-03-14T05:02:10;2.00;;;1.00;;
65667;SDS011;52369;52.542;13.232;2023-03-14T05:04:36;1.48;;;0.93;;
65667;SDS011;52369;52.542;13.232;2023-03-14T05:07:02;3.45;;;1.02;;
65667;SDS011;52369;52.542;13.232;2023-03-14T05:09:28;2.83;;;1.13;;
65667;SDS011;52369;52.542;13.232;2023-03-14T05:11:54;1.77;;;1.05;;
65667;SDS011;52369;52.542;13.232;2023-03-14T05:14:20;1.63;;;0.93;;
65667;SDS011;52369;52.542;13.232;2023-03-14T05:16:46;3.13;;;1.15;;
65667;SDS011;52369;52.542;13.232;2023-03-14T05:19:12;3.22;;;1.15;;
65667;SDS011;52369;52.542;13.232;2023-03-14T05:21:38;2.10;;;1.10;;
65667;SDS011;52369;52.542;13.232;2023-03-14T05:24:04;2.63;;;1.13;;
65667;SDS011;52369;52.542;13.232;2023-03-14T05:26:30;1.20;;;0.90;;
65667;SDS011;52369;52.542;13.232;2023-03-14T05:28:56;4.53;;;1.10;;
65667;SDS011;52369;52.542;13.232;2023-03-14T05:31:22;3.20;;;1.20;;
65667;SDS011;52369;52.542;13.232;2023-03-14T05:33:48;1.98;;;1.25;;
65667;SDS011;52369;52.542;13.232;2023-03-14T05:36:14;2.83;;;1.20;;
65667;SDS011;52369;52.542;13.232;2023-03-14T05:38:40;1.63;;;0.95;;
65667;SDS011;52369;52.542;13.232;2023-03-14T05:41:06;1.23;;;1.13;;
65667;SDS011;52369;52.542;13.232;2023-03-14T05:43:32;2.78;;;1.20;;
65667;SDS011;52369;52.542;13.232;2023-03-14T05:45:58;1.58;;;1.00;;
65667;SDS011;52369;52.542;13.232;2023-03-14T05:48:24;1.88;;;1.15;;
65667;SDS011;52369;52.542;13.232;2023-03-14T05:50:57;1.80;;;1.10;;
65667;SDS011;52369;52.542;13.232;2023-03-14T05:53:24;1.45;;;0.80;;
65667;SDS011;52369;52.542;13.232;2023-03-14T05:55:51;1.63;;;1.10;;
65667;SDS011;52369;52.542;13.232;2023-03-14T05:58:17;2.47;;;1.13;;
65667;SDS011;52369;52.542;13.232;2023-03-14T06:00:43;2.10;;;1.35;;
65667;SDS011;52369;52.542;13.232;2023-03-14T06:03:09;1.52;;;1.10;;
65667;SDS011;52369;52.542;13.232;2023-03-14T06:05:35;2.40;;;1.20;;
65667;SDS011;52369;52.542;13.232;2023-03-14T06:08:01;3.88;;;1.27;;
65667;SDS011;52369;52.542;13.232;2023-03-14T06:10:27;3.08;;;1.60;;
65667;SDS011;52369;52.542;13.232;2023-03-14T06:12:53;3.65;;;1.38;;
65667;SDS011;52369;52.542;13.232;2023-03-14T06:15:19;2.03;;;0.90;;
65667;SDS011;52369;52.542;13.232;2023-03-14T06:17:45;3.80;;;1.33;;
65667;SDS011;52369;52.542;13.232;2023-03-14T06:20:11;3.92;;;1.10;;
65667;SDS011;52369;52.542;13.232;2023-03-14T06:22:37;3.00;;;1.23;;
65667;SDS011;52369;52.542;13.232;2023-03-14T06:25:05;2.53;;;1.27;;
65667;SDS011;52369;52.542;13.232;2023-03-14T06:27:31;3.50;;;1.05;;
65667;SDS011;52369;52.542;13.232;2023-03-14T06:29:57;1.13;;;0.93;;
65667;SDS011;52369;52.542;13.232;2023-03-14T06:32:23;3.58;;;1.50;;
65667;SDS011;52369;52.542;13.232;2023-03-14T06:34:50;1.85;;;1.10;;
65667;SDS011;52369;52.542;13.232;2023-03-14T06:37:16;2.08;;;1.00;;
65667;SDS011;52369;52.542;13.232;2023-03-14T06:39:42;3.85;;;1.35;;
65667;SDS011;52369;52.542;13.232;2023-03-14T06:42:09;2.50;;;1.15;;
65667;SDS011;52369;52.542;13.232;2023-03-14T06:44:35;9.55;;;1.40;;
65667;SDS011;52369;52.542;13.232;2023-03-14T06:47:01;4.35;;;1.33;;
65667;SDS011;52369;52.542;13.232;2023-03-14T06:49:27;4.97;;;1.75;;
65667;SDS011;52369;52.542;13.232;2023-03-14T06:51:53;3.78;;;1.17;;
65667;SDS011;52369;52.542;13.232;2023-03-14T06:54:19;2.13;;;1.10;;
65667;SDS011;52369;52.542;13.232;2023-03-14T06:56:45;4.95;;;1.10;;
65667;SDS011;52369;52.542;13.232;2023-03-14T06:59:11;3.40;;;1.30;;
65667;SDS011;52369;52.542;13.232;2023-03-14T07:01:37;2.45;;;1.27;;
65667;SDS011;52369;52.542;13.232;2023-03-14T07:04:04;4.25;;;1.38;;
65667;SDS011;52369;52.542;13.232;2023-03-14T07:06:30;4.20;;;1.17;;
65667;SDS011;52369;52.542;13.232;2023-03-14T07:08:56;4.85;;;1.60;;
65667;SDS011;52369;52.542;13.232;2023-03-14T07:11:23;2.67;;;1.13;;
65667;SDS011;52369;52.542;13.232;2023-03-14T07:13:49;5.05;;;1.33;;
65667;SDS011;52369;52.542;13.232;2023-03-14T07:16:15;2.08;;;1.30;;
65667;SDS011;52369;52.542;13.232;2023-03-14T07:18:41;2.90;;;1.10;;
65667;SDS011;52369;52.542;13.232;2023-03-14T07:21:07;4.45;;;1.38;;
65667;SDS011;52369;52.542;13.232;2023-03-14T07:23:37;5.38;;;1.30;;
65667;SDS011;52369;52.542;13.232;2023-03-14T07:26:03;2.25;;;1.33;;
65667;SDS011;52369;52.542;13.232;2023-03-14T07:28:29;4.72;;;1.40;;
65667;SDS011;52369;52.542;13.232;2023-03-14T07:30:55;5.38;;;1.52;;
65667;SDS011;52369;52.542;13.232;2023-03-14T07:33:21;4.88;;;1.30;;
65667;SDS011;52369;52.542;13.232;2023-03-14T07:35:48;6.00;;;1.25;;
65667;SDS011;52369;52.542;13.232;2023-03-14T07:38:14;4.72;;;1.27;;
65667;SDS011;52369;52.542;13.232;2023-03-14T07:40:40;5.75;;;1.75;;
65667;SDS011;52369;52.542;13.232;2023-03-14T07:43:06;3.08;;;1.38;;
65667;SDS011;52369;52.542;13.232;2023-03-14T07:45:32;4.20;;;1.98;;
65667;SDS011;52369;52.542;13.232;2023-03-14T07:47:58;4.82;;;1.55;;
65667;SDS011;52369;52.542;13.232;2023-03-14T07:50:27;6.40;;;1.50;;
65667;SDS011;52369;52.542;13.232;2023-03-14T07:52:53;3.15;;;1.42;;
65667;SDS011;52369;52.542;13.232;2023-03-14T07:55:20;2.65;;;1.10;;
65667;SDS011;52369;52.542;13.232;2023-03-14T07:57:46;2.60;;;1.30;;
65667;SDS011;52369;52.542;13.232;2023-03-14T08:00:12;3.22;;;1.08;;
65667;SDS011;52369;52.542;13.232;2023-03-14T08:02:41;2.17;;;1.13;;
65667;SDS011;52369;52.542;13.232;2023-03-14T08:05:08;6.60;;;1.13;;
65667;SDS011;52369;52.542;13.232;2023-03-14T08:07:35;3.03;;;1.08;;
65667;SDS011;52369;52.542;13.232;2023-03-14T08:10:01;4.95;;;1.60;;
65667;SDS011;52369;52.542;13.232;2023-03-14T08:12:27;6.30;;;1.48;;
65667;SDS011;52369;52.542;13.232;2023-03-14T08:14:53;8.18;;;2.13;;
65667;SDS011;52369;52.542;13.232;2023-03-14T08:17:19;5.70;;;1.40;;
65667;SDS011;52369;52.542;13.232;2023-03-14T08:19:45;3.53;;;1.58;;
65667;SDS011;52369;52.542;13.232;2023-03-14T08:22:11;5.32;;;2.22;;
65667;SDS011;52369;52.542;13.232;2023-03-14T08:24:37;8.07;;;2.90;;
65667;SDS011;52369;52.542;13.232;2023-03-14T08:27:03;5.15;;;1.25;;
65667;SDS011;52369;52.542;13.232;2023-03-14T08:29:29;5.43;;;2.55;;
65667;SDS011;52369;52.542;13.232;2023-03-14T08:31:55;7.13;;;1.73;;
65667;SDS011;52369;52.542;13.232;2023-03-14T08:34:21;4.55;;;1.35;;
65667;SDS011;52369;52.542;13.232;2023-03-14T08:36:47;6.55;;;1.40;;
65667;SDS011;52369;52.542;13.232;2023-03-14T08:39:13;6.45;;;1.50;;
65667;SDS011;52369;52.542;13.232;2023-03-14T08:41:39;2.95;;;1.25;;
65667;SDS011;52369;52.542;13.232;2023-03-14T08:44:07;2.15;;;1.42;;
65667;SDS011;52369;52.542;13.232;2023-03-14T08:46:34;7.90;;;2.13;;
65667;SDS011;52369;52.542;13.232;2023-03-14T08:49:00;3.78;;;1.70;;
65667;SDS011;52369;52.542;13.232;2023-03-14T08:51:26;6.00;;;1.83;;
65667;SDS011;52369;52.542;13.232;2023-03-14T08:53:52;3.80;;;1.58;;
65667;SDS011;52369;52.542;13.232;2023-03-14T08:56:18;3.22;;;0.95;;
65667;SDS011;52369;52.542;13.232;2023-03-14T08:58:44;5.32;;;1.30;;
65667;SDS011;52369;52.542;13.232;2023-03-14T09:01:10;3.38;;;1.20;;
65667;SDS011;52369;52.542;13.232;2023-03-14T09:03:37;4.47;;;1.13;;
65667;SDS011;52369;52.542;13.232;2023-03-14T09:06:04;4.25;;;2.25;;
65667;SDS011;52369;52.542;13.232;2023-03-14T09:08:30;3.60;;;1.10;;
65667;SDS011;52369;52.542;13.232;2023-03-14T09:10:57;4.43;;;1.02;;
65667;SDS011;52369;52.542;13.232;2023-03-14T09:13:23;2.83;;;1.10;;
65667;SDS011;52369;52.542;13.232;2023-03-14T09:15:55;5.28;;;1.40;;
65667;SDS011;52369;52.542;13.232;2023-03-14T09:18:22;6.72;;;1.50;;
65667;SDS011;52369;52.542;13.232;2023-03-14T09:20:48;4.00;;;1.10;;
65667;SDS011;52369;52.542;13.232;2023-03-14T09:23:15;6.00;;;1.30;;
65667;SDS011;52369;52.542;13.232;2023-03-14T09:25:41;2.10;;;0.95;;
65667;SDS011;52369;52.542;13.232;2023-03-14T09:28:07;2.92;;;0.90;;
65667;SDS011;52369;52.542;13.232;2023-03-14T09:30:33;3.53;;;1.23;;
65667;SDS011;52369;52.542;13.232;2023-03-14T09:32:59;3.95;;;1.23;;
65667;SDS011;52369;52.542;13.232;2023-03-14T09:35:25;4.95;;;1.17;;
65667;SDS011;52369;52.542;13.232;2023-03-14T09:37:51;4.20;;;1.15;;
65667;SDS011;52369;52.542;13.232;2023-03-14T09:40:18;4.47;;;1.08;;
65667;SDS011;52369;52.542;13.232;2023-03-14T09:42:45;1.42;;;0.82;;
65667;SDS011;52369;52.542;13.232;2023-03-14T09:45:35;5.22;;;1.27;;
65667;SDS011;52369;52.542;13.232;2023-03-14T09:47:59;5.35;;;1.13;;
65667;SDS011;52369;52.542;13.232;2023-03-14T09:50:30;4.80;;;1.15;;
65667;SDS011;52369;52.542;13.232;2023-03-14T09:52:59;1.88;;;1.10;;
65667;SDS011;52369;52.542;13.232;2023-03-14T09:55:27;5.35;;;1.20;;
65667;SDS011;52369;52.542;13.232;2023-03-14T09:57:57;5.55;;;1.52;;
65667;SDS011;52369;52.542;13.232;2023-03-14T10:00:26;6.35;;;1.40;;
65667;SDS011;52369;52.542;13.232;2023-03-14T10:02:54;5.60;;;1.08;;
65667;SDS011;52369;52.542;13.232;2023-03-14T10:05:22;2.33;;;1.15;;
65667;SDS011;52369;52.542;13.232;2023-03-14T10:07:49;6.03;;;1.23;;
65667;SDS011;52369;52.542;13.232;2023-03-14T10:10:16;2.03;;;0.77;;
65667;SDS011;52369;52.542;13.232;2023-03-14T10:12:43;2.55;;;1.00;;
65667;SDS011;52369;52.542;13.232;2023-03-14T10:15:11;5.65;;;1.38;;
65667;SDS011;52369;52.542;13.232;2023-03-14T10:20:06;4.20;;;1.20;;
65667;SDS011;52369;52.542;13.232;2023-03-14T10:22:35;3.03;;;1.10;;
65667;SDS011;52369;52.542;13.232;2023-03-14T10:25:03;2.95;;;1.55;;
65667;SDS011;52369;52.542;13.232;2023-03-14T10:27:33;3.47;;;1.33;;
65667;SDS011;52369;52.542;13.232;2023-03-14T10:30:00;6.20;;;1.27;;
65667;SDS011;52369;52.542;13.232;2023-03-14T10:32:34;3.88;;;1.65;;
65667;SDS011;52369;52.542;13.232;2023-03-14T10:37:58;2.67;;;0.98;;
65667;SDS011;52369;52.542;13.232;2023-03-14T10:40:27;4.63;;;1.60;;
65667;SDS011;52369;52.542;13.232;2023-03-14T10:42:54;3.38;;;0.90;;
65667;SDS011;52369;52.542;13.232;2023-03-14T10:47:49;3.30;;;1.15;;
65667;SDS011;52369;52.542;13.232;2023-03-14T10:50:49;5.10;;;1.42;;
65667;SDS011;52369;52.542;13.232;2023-03-14T10:53:08;3.30;;;0.90;;
65667;SDS011;52369;52.542;13.232;2023-03-14T10:55:41;4.70;;;0.88;;
65667;SDS011;52369;52.542;13.232;2023-03-14T11:00:33;5.63;;;1.17;;
65667;SDS011;52369;52.542;13.232;2023-03-14T11:05:31;4.55;;;1.10;;
65667;SDS011;52369;52.542;13.232;2023-03-14T11:08:10;4.13;;;0.95;;
65667;SDS011;52369;52.542;13.232;2023-03-14T11:10:40;3.08;;;0.85;;
65667;SDS011;52369;52.542;13.232;2023-03-14T11:20:47;4.93;;;1.20;;
65667;SDS011;52369;52.542;13.232;2023-03-14T11:23:21;4.70;;;1.25;;
65667;SDS011;52369;52.542;13.232;2023-03-14T11:28:33;4.10;;;1.40;;
65667;SDS011;52369;52.542;13.232;2023-03-14T11:36:39;2.75;;;0.85;;
65667;SDS011;52369;52.542;13.232;2023-03-14T11:39:07;10.02;;;1.27;;
65667;SDS011;52369;52.542;13.232;2023-03-14T11:41:41;2.78;;;1.00;;
65667;SDS011;52369;52.542;13.232;2023-03-14T11:44:10;3.58;;;0.88;;
65667;SDS011;52369;52.542;13.232;2023-03-14T11:46:48;2.83;;;1.23;;
65667;SDS011;52369;52.542;13.232;2023-03-14T11:51:41;2.00;;;0.50;;
65667;SDS011;52369;52.542;13.232;2023-03-14T11:54:12;3.10;;;0.90;;
65667;SDS011;52369;52.542;13.232;2023-03-14T11:56:47;1.42;;;0.65;;
65667;SDS011;52369;52.542;13.232;2023-03-14T11:59:16;1.58;;;0.70;;
65667;SDS011;52369;52.542;13.232;2023-03-14T12:04:15;2.45;;;0.70;;
65667;SDS011;52369;52.542;13.232;2023-03-14T12:06:49;0.85;;;0.68;;
65667;SDS011;52369;52.542;13.232;2023-03-14T12:09:15;2.85;;;0.77;;
65667;SDS011;52369;52.542;13.232;2023-03-14T12:11:45;2.38;;;0.80;;
65667;SDS011;52369;52.542;13.232;2023-03-14T12:14:26;2.13;;;0.80;;
65667;SDS011;52369;52.542;13.232;2023-03-14T12:16:54;7.03;;;1.20;;
65667;SDS011;52369;52.542;13.232;2023-03-14T12:24:17;2.92;;;0.77;;
65667;SDS011;52369;52.542;13.232;2023-03-14T12:26:49;1.67;;;0.80;;
65667;SDS011;52369;52.542;13.232;2023-03-14T12:29:16;2.38;;;0.80;;
65667;SDS011;52369;52.542;13.232;2023-03-14T12:31:43;2.85;;;0.80;;
65667;SDS011;52369;52.542;13.232;2023-03-14T12:49:40;1.13;;;0.60;;
65667;SDS011;52369;52.542;13.232;2023-03-14T12:52:19;1.40;;;0.50;;
65667;SDS011;52369;52.542;13.232;2023-03-14T12:54:57;2.20;;;0.70;;
65667;SDS011;52369;52.542;13.232;2023-03-14T12:57:33;2.92;;;1.00;;
65667;SDS011;52369;52.542;13.232;2023-03-14T13:00:23;2.58;;;0.80;;
65667;SDS011;52369;52.542;13.232;2023-03-14T13:02:48;1.65;;;0.98;;
65667;SDS011;52369;52.542;13.232;2023-03-14T13:10:20;0.98;;;0.55;;
65667;SDS011;52369;52.542;13.232;2023-03-14T13:15:32;3.03;;;0.90;;
65667;SDS011;52369;52.542;13.232;2023-03-14T13:18:03;1.83;;;0.77;;
65667;SDS011;52369;52.542;13.232;2023-03-14T13:20:36;2.28;;;0.90;;
65667;SDS011;52369;52.542;13.232;2023-03-14T13:23:03;1.10;;;0.70;;
65667;SDS011;52369;52.542;13.232;2023-03-14T13:25:33;5.03;;;0.80;;
65667;SDS011;52369;52.542;13.232;2023-03-14T13:28:00;1.80;;;0.60;;
65667;SDS011;52369;52.542;13.232;2023-03-14T13:30:28;2.00;;;0.45;;
65667;SDS011;52369;52.542;13.232;2023-03-14T13:32:55;1.30;;;0.73;;
65667;SDS011;52369;52.542;13.232;2023-03-14T13:35:37;1.00;;;0.60;;
65667;SDS011;52369;52.542;13.232;2023-03-14T13:38:04;4.53;;;0.65;;
65667;SDS011;52369;52.542;13.232;2023-03-14T13:40:33;3.30;;;0.85;;
65667;SDS011;52369;52.542;13.232;2023-03-14T13:43:04;1.63;;;0.50;;
65667;SDS011;52369;52.542;13.232;2023-03-14T13:45:30;1.35;;;0.60;;
65667;SDS011;52369;52.542;13.232;2023-03-14T13:47:56;1.83;;;0.90;;
65667;SDS011;52369;52.542;13.232;2023-03-14T13:50:22;2.28;;;0.52;;
65667;SDS011;52369;52.542;13.232;2023-03-14T13:52:54;2.00;;;0.70;;
65667;SDS011;52369;52.542;13.232;2023-03-14T13:55:20;0.52;;;0.50;;
65667;SDS011;52369;52.542;13.232;2023-03-14T13:57:50;1.33;;;0.50;;
65667;SDS011;52369;52.542;13.232;2023-03-14T14:02:47;2.28;;;0.90;;
65667;SDS011;52369;52.542;13.232;2023-03-14T14:05:13;2.00;;;0.52;;
65667;SDS011;52369;52.542;13.232;2023-03-14T14:07:40;2.63;;;0.60;;
65667;SDS011;52369;52.542;13.232;2023-03-14T14:10:09;3.47;;;0.88;;
65667;SDS011;52369;52.542;13.232;2023-03-14T14:12:37;2.72;;;0.50;;
65667;SDS011;52369;52.542;13.232;2023-03-14T14:15:15;3.67;;;0.60;;
65667;SDS011;52369;52.542;13.232;2023-03-14T14:17:54;5.20;;;0.80;;
65667;SDS011;52369;52.542;13.232;2023-03-14T14:22:59;1.98;;;0.40;;
65667;SDS011;52369;52.542;13.232;2023-03-14T14:25:27;1.88;;;0.40;;
65667;SDS011;52369;52.542;13.232;2023-03-14T14:27:54;1.05;;;0.47;;
65667;SDS011;52369;52.542;13.232;2023-03-14T14:32:46;1.52;;;0.40;;
65667;SDS011;52369;52.542;13.232;2023-03-14T14:35:26;2.00;;;0.82;;
65667;SDS011;52369;52.542;13.232;2023-03-14T14:37:52;1.00;;;0.65;;
65667;SDS011;52369;52.542;13.232;2023-03-14T14:40:19;1.52;;;0.73;;
65667;SDS011;52369;52.542;13.232;2023-03-14T14:42:46;1.95;;;0.68;;
65667;SDS011;52369;52.542;13.232;2023-03-14T14:45:18;1.77;;;1.00;;
65667;SDS011;52369;52.542;13.232;2023-03-14T14:47:54;0.95;;;0.45;;
65667;SDS011;52369;52.542;13.232;2023-03-14T14:50:26;0.80;;;0.77;;
65667;SDS011;52369;52.542;13.232;2023-03-14T14:52:56;1.13;;;0.68;;
65667;SDS011;52369;52.542;13.232;2023-03-14T14:55:22;0.90;;;0.77;;
65667;SDS011;52369;52.542;13.232;2023-03-14T14:57:54;3.10;;;0.68;;
65667;SDS011;52369;52.542;13.232;2023-03-14T15:00:24;0.95;;;0.60;;
65667;SDS011;52369;52.542;13.232;2023-03-14T15:02:52;1.42;;;0.93;;
65667;SDS011;52369;52.542;13.232;2023-03-14T15:05:20;2.40;;;1.00;;
65667;SDS011;52369;52.542;13.232;2023-03-14T15:07:47;2.47;;;0.90;;
65667;SDS011;52369;52.542;13.232;2023-03-14T15:10:17;1.80;;;0.50;;
65667;SDS011;52369;52.542;13.232;2023-03-14T15:12:43;0.60;;;0.30;;
65667;SDS011;52369;52.542;13.232;2023-03-14T15:15:10;2.78;;;0.70;;
65667;SDS011;52369;52.542;13.232;2023-03-14T15:17:37;1.88;;;0.30;;
65667;SDS011;52369;52.542;13.232;2023-03-14T15:20:04;0.52;;;0.28;;
65667;SDS011;52369;52.542;13.232;2023-03-14T15:22:30;1.65;;;0.30;;
65667;SDS011;52369;52.542;13.232;2023-03-14T15:24:57;0.65;;;0.25;;
65667;SDS011;52369;52.542;13.232;2023-03-14T15:27:23;0.55;;;0.40;;
65667;SDS011;52369;52.542;13.232;2023-03-14T15:29:49;0.10;;;0.10;;
65667;SDS011;52369;52.542;13.232;2023-03-14T15:32:16;0.50;;;0.30;;
65667;SDS011;52369;52.542;13.232;2023-03-14T15:34:43;1.35;;;0.45;;
65667;SDS011;52369;52.542;13.232;2023-03-14T15:37:10;0.68;;;0.50;;
65667;SDS011;52369;52.542;13.232;2023-03-14T15:39:37;0.38;;;0.20;;
65667;SDS011;52369;52.542;13.232;2023-03-14T15:42:03;0.43;;;0.20;;
65667;SDS011;52369;52.542;13.232;2023-03-14T15:44:29;1.45;;;0.22;;
65667;SDS011;52369;52.542;13.232;2023-03-14T15:46:55;1.50;;;0.40;;
65667;SDS011;52369;52.542;13.232;2023-03-14T15:49:21;4.28;;;1.88;;
65667;SDS011;52369;52.542;13.232;2023-03-14T15:51:47;0.32;;;0.30;;
65667;SDS011;52369;52.542;13.232;2023-03-14T15:54:13;0.30;;;0.30;;
65667;SDS011;52369;52.542;13.232;2023-03-14T15:56:40;0.85;;;0.20;;